Time;durP1;ratioP1;P1;durP2;ratioP2;P2;SDS_P1;SDS_P2;PMS_P1;PMS_P2;Temp;Humidity;BMP_temperature;BMP_pressure;BME280_temperature;BME280_humidity;BME280_pressure;Samples;Min_cycle;Max_cycle;Signal;HPM_P1;HPM_P2
2023/10/19 00:01:58;;;;;;;11.30;7.07;;;;;;;8.18;89.52;99808.63;7391708;19;19926;-69
2023/10/19 00:04:24;;;;;;;14.55;7.78;;;;;;;8.17;89.91;99805.13;7389728;19;19918;-69
2023/10/19 00:06:53;;;;;;;;;;;;;;;8.09;93.68;99793.66;7393867;19;20007;-68
2023/10/19 00:09:20;;;;;;;14.60;7.50;;;;;;;8.12;90.69;99787.91;7388892;19;19922;-69
2023/10/19 00:11:51;;;;;;;11.63;7.30;;;;;;;8.13;90.33;99784.22;7388965;19;19915;-69
2023/10/19 00:14:21;;;;;;;12.88;6.88;;;;;;;8.12;90.72;99780.69;7390574;19;19922;-69
2023/10/19 00:16:54;;;;;;;12.70;7.60;;;;;;;8.10;90.99;99773.88;7395997;19;19919;-69
2023/10/19 00:19:20;;;;;;;12.40;7.57;;;;;;;8.07;90.89;99780.41;7396331;19;19926;-68
2023/10/19 00:21:55;;;;;;;12.65;6.82;;;;;;;8.09;90.67;99774.88;7395616;19;19957;-69
2023/10/19 00:24:23;;;;;;;13.50;6.95;;;;;;;8.08;91.58;99766.00;7395756;19;20285;-68
2023/10/19 00:26:53;;;;;;;13.50;7.15;;;;;;;8.08;91.63;99755.28;7395131;19;20370;-69
2023/10/19 00:29:40;;;;;;;13.55;7.65;;;;;;;8.11;92.02;99770.16;7393501;19;19919;-69
2023/10/19 00:32:14;;;;;;;11.30;7.00;;;;;;;8.10;92.25;99757.78;7396706;19;20037;-69
2023/10/19 00:34:49;;;;;;;14.25;7.90;;;;;;;8.09;92.13;99748.06;7396858;19;20576;-70
2023/10/19 00:37:20;;;;;;;13.43;8.45;;;;;;;8.08;91.86;99757.13;7394711;19;19998;-69
2023/10/19 00:39:54;;;;;;;15.52;8.98;;;;;;;8.06;92.08;99756.50;7398219;19;19953;-69
2023/10/19 00:42:25;;;;;;;14.13;8.70;;;;;;;8.06;92.51;99753.81;7396943;19;20376;-69
2023/10/19 00:45:02;;;;;;;19.92;10.13;;;;;;;8.06;92.83;99743.09;7395113;19;19990;-70
2023/10/19 00:47:39;;;;;;;19.15;9.38;;;;;;;8.05;92.47;99744.09;7395756;19;19965;-69
2023/10/19 00:50:15;;;;;;;16.85;9.73;;;;;;;8.03;92.99;99730.84;7394903;19;19922;-67
2023/10/19 00:52:49;;;;;;;18.52;10.45;;;;;;;8.02;93.00;99713.13;7395676;19;20377;-68
2023/10/19 00:55:19;;;;;;;18.92;10.13;;;;;;;7.99;93.04;99716.16;7394764;19;19925;-69
2023/10/19 00:57:54;;;;;;;19.27;9.52;;;;;;;8.00;94.08;99715.16;7396348;19;19919;-68
2023/10/19 01:00:30;;;;;;;20.00;10.68;;;;;;;8.00;93.80;99703.59;7394129;19;19919;-69
2023/10/19 01:02:59;;;;;;;16.88;9.38;;;;;;;7.99;93.79;99691.19;7394982;19;19982;-68
2023/10/19 01:05:35;;;;;;;19.00;9.90;;;;;;;7.98;93.66;99690.34;7397650;19;19937;-68
2023/10/19 01:08:14;;;;;;;14.40;8.23;;;;;;;7.96;93.72;99695.09;7393352;19;20261;-68
2023/10/19 01:10:45;;;;;;;15.23;8.52;;;;;;;7.96;94.46;99700.47;7394931;19;19918;-68
2023/10/19 01:13:16;;;;;;;14.35;8.98;;;;;;;7.97;94.46;99694.09;7394195;19;19923;-68
2023/10/19 01:15:49;;;;;;;15.80;8.98;;;;;;;7.97;94.55;99694.09;7393992;19;20302;-68
2023/10/19 01:18:18;;;;;;;13.48;8.40;;;;;;;7.94;94.64;99686.41;7396940;19;19919;-69
2023/10/19 01:20:50;;;;;;;12.45;9.10;;;;;;;7.91;94.73;99697.50;7393813;19;19918;-69
2023/10/19 01:23:26;;;;;;;11.77;7.72;;;;;;;7.91;95.17;99685.94;7383122;19;19932;-70
2023/10/19 01:26:06;;;;;;;13.07;8.20;;;;;;;7.90;95.22;99678.91;7390446;19;19922;-69
2023/10/19 01:28:47;;;;;;;11.43;7.63;;;;;;;7.90;95.22;99671.72;7388405;19;19933;-69
2023/10/19 01:31:22;;;;;;;11.95;8.43;;;;;;;7.91;94.87;99677.91;7395359;19;20568;-69
2023/10/19 01:33:54;;;;;;;12.77;7.85;;;;;;;7.91;95.52;99673.38;7394027;19;19926;-69
2023/10/19 01:36:28;;;;;;;;;;;;;;;7.84;97.89;99669.78;7395133;19;19998;-69
2023/10/19 01:39:00;;;;;;;11.55;7.30;;;;;;;7.86;96.05;99665.06;7391625;19;19923;-69
2023/10/19 01:41:30;;;;;;;19.42;8.70;;;;;;;7.86;96.14;99661.53;7394001;19;19926;-69
2023/10/19 01:44:04;;;;;;;13.48;8.50;;;;;;;7.86;95.60;99665.06;7392964;19;19924;-69
2023/10/19 01:46:33;;;;;;;10.80;7.40;;;;;;;7.85;96.06;99658.06;7393787;19;19939;-69
2023/10/19 01:49:02;;;;;;;11.52;8.00;;;;;;;7.85;96.12;99651.88;7393194;19;19929;-69
2023/10/19 01:51:33;;;;;;;12.52;7.60;;;;;;;7.85;96.35;99644.66;7394437;19;19949;-69
2023/10/19 01:54:02;;;;;;;15.32;8.68;;;;;;;7.84;96.26;99634.94;7395895;19;20313;-69
2023/10/19 01:56:30;;;;;;;16.73;8.75;;;;;;;7.84;96.42;99631.44;7394635;19;19931;-69
2023/10/19 01:58:57;;;;;;;13.07;8.43;;;;;;;7.84;96.07;99624.22;7392038;19;19923;-69
2023/10/19 02:01:32;;;;;;;13.43;8.60;;;;;;;7.84;96.65;99629.59;7397809;19;19953;-69
2023/10/19 02:03:59;;;;;;;12.30;8.20;;;;;;;7.84;96.18;99621.53;7395284;19;19925;-69
2023/10/19 02:06:35;;;;;;;12.35;7.97;;;;;;;7.81;96.63;99615.72;7391656;19;20002;-69
2023/10/19 02:09:09;;;;;;;13.18;8.77;;;;;;;7.80;97.43;99614.91;7393361;19;19923;-70
2023/10/19 02:11:41;;;;;;;12.13;7.82;;;;;;;7.79;97.03;99605.19;7393854;19;20329;-69
2023/10/19 02:14:14;;;;;;;12.90;8.32;;;;;;;7.78;97.05;99605.38;7394688;19;20571;-69
2023/10/19 02:16:43;;;;;;;12.10;7.60;;;;;;;7.78;97.74;99602.69;7393295;19;19923;-70
2023/10/19 02:19:09;;;;;;;12.07;7.75;;;;;;;7.77;97.83;99603.72;7394169;19;19983;-70
2023/10/19 02:21:39;;;;;;;13.27;7.85;;;;;;;7.77;97.49;99604.53;7394180;19;19929;-69
2023/10/19 02:24:09;;;;;;;11.18;7.60;;;;;;;7.79;97.25;99615.06;7392987;19;19960;-69
2023/10/19 02:26:38;;;;;;;11.93;7.90;;;;;;;7.79;97.36;99607.88;7392983;19;19922;-69
2023/10/19 02:29:07;;;;;;;11.30;7.78;;;;;;;7.79;97.52;99594.47;7389852;19;19925;-69
2023/10/19 02:31:37;;;;;;;11.70;8.05;;;;;;;7.81;97.46;99576.31;7393535;19;19922;-69
2023/10/19 02:34:04;;;;;;;12.93;8.13;;;;;;;7.82;97.42;99561.91;7392863;19;19919;-69
2023/10/19 02:36:34;;;;;;;10.85;7.68;;;;;;;7.80;97.72;99563.97;7391142;19;19943;-69
2023/10/19 02:39:07;;;;;;;13.40;8.23;;;;;;;7.79;97.61;99581.06;7391208;19;19927;-69
2023/10/19 02:41:39;;;;;;;12.73;7.63;;;;;;;7.79;97.36;99583.75;7393278;19;19929;-69
2023/10/19 02:44:19;;;;;;;12.27;7.22;;;;;;;7.81;97.53;99589.72;7391619;19;19926;-69
2023/10/19 02:46:49;;;;;;;10.50;7.30;;;;;;;7.82;97.71;99587.88;7388917;19;19926;-69
2023/10/19 02:49:18;;;;;;;12.23;7.72;;;;;;;7.82;97.45;99587.88;7392292;19;19947;-70
2023/10/19 02:51:47;;;;;;;11.38;7.07;;;;;;;7.83;97.38;99582.34;7390903;19;19922;-69
2023/10/19 02:54:17;;;;;;;11.63;7.80;;;;;;;7.84;97.46;99584.00;7393480;19;20039;-69
2023/10/19 02:56:51;;;;;;;12.82;7.00;;;;;;;7.85;97.60;99583.00;7391688;19;19927;-69
2023/10/19 02:59:22;;;;;;;12.13;6.63;;;;;;;7.85;97.89;99574.94;7390205;19;19927;-69
2023/10/19 03:01:51;;;;;;;10.60;7.50;;;;;;;7.86;97.95;99568.53;7392214;19;19926;-70
2023/10/19 03:04:18;;;;;;;11.02;7.07;;;;;;;7.85;97.72;99564.22;7392974;19;19922;-70
2023/10/19 03:06:47;;;;;;;9.57;6.95;;;;;;;7.84;98.11;99564.41;7387950;19;19951;-69
2023/10/19 03:09:13;;;;;;;9.88;6.68;;;;;;;7.82;98.32;99555.72;7391717;19;20254;-69
2023/10/19 03:11:43;;;;;;;9.20;6.80;;;;;;;7.81;98.44;99568.28;7393709;19;19930;-69
2023/10/19 03:14:12;;;;;;;10.02;7.28;;;;;;;7.83;98.22;99566.25;7389995;19;19919;-69
2023/10/19 03:16:42;;;;;;;11.45;6.63;;;;;;;7.83;98.78;99560.06;7391127;19;19927;-69
2023/10/19 03:19:08;;;;;;;10.80;6.90;;;;;;;7.83;98.59;99562.72;7390391;19;20470;-69
2023/10/19 03:21:44;;;;;;;11.23;7.03;;;;;;;7.82;98.70;99553.84;7389273;19;19922;-69
2023/10/19 03:24:23;;;;;;;9.85;7.20;;;;;;;7.81;99.03;99557.56;7389737;19;20006;-69
2023/10/19 03:26:49;;;;;;;9.38;6.28;;;;;;;7.82;99.50;99561.91;7389077;19;19945;-69
2023/10/19 03:29:21;;;;;;;9.18;6.32;;;;;;;7.83;98.49;99558.19;7389998;19;19926;-69
2023/10/19 03:31:50;;;;;;;8.35;6.07;;;;;;;7.83;99.04;99558.19;7392381;19;20345;-69
2023/10/19 03:34:19;;;;;;;7.72;5.70;;;;;;;7.81;99.12;99549.50;7392412;19;19952;-69
2023/10/19 03:36:47;;;;;;;8.38;6.22;;;;;;;7.81;99.11;99549.50;7389874;19;19922;-69
2023/10/19 03:39:17;;;;;;;8.55;6.07;;;;;;;7.83;99.23;99542.13;7391160;19;20500;-69
2023/10/19 03:41:47;;;;;;;9.10;6.30;;;;;;;7.82;99.58;99535.09;7391271;19;20618;-69
2023/10/19 03:44:24;;;;;;;10.77;5.88;;;;;;;7.81;99.40;99536.09;7392364;19;19930;-69
2023/10/19 03:46:57;;;;;;;6.93;5.22;;;;;;;7.82;98.99;99535.09;7392326;19;19925;-69
2023/10/19 03:49:30;;;;;;;6.63;5.00;;;;;;;7.84;99.09;99537.59;7395512;19;19923;-69
2023/10/19 03:52:19;;;;;;;6.45;4.68;;;;;;;7.82;99.33;99529.72;7396005;19;19961;-69
2023/10/19 03:54:49;;;;;;;6.75;4.72;;;;;;;7.83;99.55;99531.41;7394862;19;19939;-69
2023/10/19 03:57:19;;;;;;;7.65;5.53;;;;;;;7.84;99.62;99519.66;7397501;19;19944;-69
2023/10/19 03:59:52;;;;;;;7.28;4.80;;;;;;;7.84;99.85;99522.34;7395711;19;20383;-69
2023/10/19 04:02:23;;;;;;;7.30;5.28;;;;;;;7.85;99.51;99517.81;7397210;19;19928;-70
2023/10/19 04:04:52;;;;;;;8.75;5.05;;;;;;;7.84;99.87;99510.78;7398143;19;19939;-69
2023/10/19 04:07:23;;;;;;;6.82;4.82;;;;;;;7.85;99.87;99507.09;7392755;19;19934;-68
2023/10/19 04:10:29;;;;;;;7.95;5.13;;;;;;;7.86;99.76;99504.19;7397314;19;19923;-68
2023/10/19 04:13:00;;;;;;;6.43;5.03;;;;;;;7.87;100.00;99502.34;7396791;19;19926;-69
2023/10/19 04:15:33;;;;;;;5.50;4.05;;;;;;;7.87;100.00;99503.19;7393861;19;19927;-68
2023/10/19 04:18:02;;;;;;;8.70;4.50;;;;;;;7.87;100.00;99502.34;7395615;19;19933;-68
2023/10/19 04:20:42;;;;;;;6.97;5.03;;;;;;;7.86;100.00;99489.94;7394184;19;19923;-68
2023/10/19 04:23:15;;;;;;;5.22;4.07;;;;;;;7.85;100.00;99491.84;7395754;19;19918;-68
2023/10/19 04:25:45;;;;;;;5.75;4.18;;;;;;;7.84;100.00;99495.53;7397193;19;19926;-69
2023/10/19 04:28:15;;;;;;;6.45;4.50;;;;;;;7.83;100.00;99491.19;7394265;19;20802;-68
2023/10/19 04:30:48;;;;;;;5.88;4.18;;;;;;;7.83;100.00;99501.06;7397867;19;19923;-68
2023/10/19 04:33:18;;;;;;;5.68;3.85;;;;;;;7.83;100.00;99488.50;7396798;19;19927;-68
2023/10/19 04:35:52;;;;;;;5.60;4.07;;;;;;;7.83;100.00;99491.19;7396258;19;20372;-68
2023/10/19 04:38:21;;;;;;;5.45;4.07;;;;;;;7.84;100.00;99492.00;7394304;19;19922;-68
2023/10/19 04:40:49;;;;;;;5.93;3.50;;;;;;;7.85;100.00;99481.09;7395054;19;20267;-68
2023/10/19 04:43:18;;;;;;;5.80;3.97;;;;;;;7.86;100.00;99488.09;7395391;19;19944;-68
2023/10/19 04:45:49;;;;;;;5.50;4.03;;;;;;;7.85;100.00;99489.16;7389838;19;20776;-68
2023/10/19 04:48:17;;;;;;;4.40;3.40;;;;;;;7.83;100.00;99490.34;7392474;19;19954;-68
2023/10/19 04:50:46;;;;;;;5.15;3.70;;;;;;;7.84;100.00;99484.81;7395216;19;19926;-69
2023/10/19 04:53:14;;;;;;;4.47;3.35;;;;;;;7.83;100.00;99485.81;7396944;19;19929;-68
2023/10/19 04:55:45;;;;;;;2.72;2.45;;;;;;;7.84;100.00;99489.34;7396580;19;20332;-68
2023/10/19 04:58:13;;;;;;;4.35;2.88;;;;;;;7.85;100.00;99491.84;7393888;19;19948;-68
2023/10/19 05:00:42;;;;;;;4.07;2.95;;;;;;;7.85;100.00;99478.44;7391590;19;19930;-68
2023/10/19 05:03:18;;;;;;;3.65;2.63;;;;;;;7.86;100.00;99482.75;7390235;19;19930;-68
2023/10/19 05:05:47;;;;;;;5.60;3.10;;;;;;;7.85;100.00;99486.47;7395602;19;19925;-68
2023/10/19 05:08:15;;;;;;;4.20;2.75;;;;;;;7.86;100.00;99492.63;7396349;19;19922;-68
2023/10/19 05:10:44;;;;;;;4.03;3.13;;;;;;;7.85;100.00;99481.09;7395443;19;19922;-68
2023/10/19 05:13:12;;;;;;;4.13;2.60;;;;;;;7.86;100.00;99488.09;7396342;19;19915;-68
2023/10/19 05:15:42;;;;;;;3.28;2.40;;;;;;;7.85;100.00;99483.78;7395758;19;19926;-69
2023/10/19 05:18:13;;;;;;;3.67;2.38;;;;;;;7.86;100.00;99484.59;7395944;19;19974;-69
2023/10/19 05:20:43;;;;;;;3.35;2.30;;;;;;;7.84;100.00;99483.97;7394881;19;19931;-68
2023/10/19 05:23:13;;;;;;;2.45;1.98;;;;;;;7.83;100.00;99485.81;7394908;19;19923;-69
2023/10/19 05:25:42;;;;;;;2.83;2.20;;;;;;;7.81;100.00;99479.81;7397975;19;19959;-68
2023/10/19 05:28:10;;;;;;;2.83;2.20;;;;;;;7.81;100.00;99485.16;7392502;19;19930;-67
2023/10/19 05:30:39;;;;;;;3.33;2.28;;;;;;;7.82;100.00;99484.16;7394642;19;19942;-68
2023/10/19 05:33:08;;;;;;;2.55;2.13;;;;;;;7.83;100.00;99482.31;7396795;19;19923;-68
2023/10/19 05:35:40;;;;;;;4.03;2.58;;;;;;;7.84;100.00;99473.25;7396800;19;20021;-68
2023/10/19 05:38:09;;;;;;;2.53;2.03;;;;;;;7.82;100.00;99483.31;7397062;19;19968;-68
2023/10/19 05:40:38;;;;;;;2.83;2.20;;;;;;;7.81;100.00;99479.81;7390368;19;19934;-68
2023/10/19 05:43:07;;;;;;;2.90;2.28;;;;;;;7.81;100.00;99490.53;7395941;19;19915;-68
2023/10/19 05:45:36;;;;;;;3.25;2.10;;;;;;;7.81;100.00;99500.44;7389153;19;19926;-68
2023/10/19 05:48:06;;;;;;;2.47;2.05;;;;;;;7.82;100.00;99492.19;7395858;19;19926;-68
2023/10/19 05:50:35;;;;;;;2.85;1.95;;;;;;;7.80;100.00;99504.97;7382487;19;19945;-68
2023/10/19 05:53:06;;;;;;;2.22;1.90;;;;;;;7.82;100.00;99507.44;7375117;19;20552;-68
2023/10/19 05:55:35;;;;;;;3.03;2.40;;;;;;;7.81;100.00;99503.94;7374965;19;19984;-68
2023/10/19 05:58:04;;;;;;;2.75;2.20;;;;;;;7.82;100.00;99510.97;7384934;19;22067;-69
2023/10/19 06:00:34;;;;;;;3.10;2.28;;;;;;;7.83;100.00;99503.75;7391804;19;19939;-69
2023/10/19 06:03:04;;;;;;;4.53;2.00;;;;;;;7.84;100.00;99510.78;7392757;19;20604;-69
2023/10/19 06:05:33;;;;;;;2.80;2.30;;;;;;;7.84;100.00;99511.63;7395566;19;19948;-69
2023/10/19 06:08:02;;;;;;;2.65;2.08;;;;;;;7.85;100.00;99517.81;7396156;19;19911;-70
2023/10/19 06:10:33;;;;;;;2.50;2.08;;;;;;;7.86;100.00;99519.44;7395036;19;19922;-69
2023/10/19 06:13:01;;;;;;;2.58;2.20;;;;;;;7.85;100.00;99517.81;7393356;19;20014;-69
2023/10/19 06:15:32;;;;;;;3.70;2.60;;;;;;;7.86;100.00;99514.91;7390094;19;19931;-70
2023/10/19 06:18:00;;;;;;;3.38;2.20;;;;;;;7.85;100.00;99507.09;7392062;19;19919;-69
2023/10/19 06:20:29;;;;;;;2.58;1.90;;;;;;;7.86;100.00;99514.09;7391698;19;19923;-68
2023/10/19 06:23:03;;;;;;;3.05;2.35;;;;;;;7.85;100.00;99507.91;7380932;19;20814;-69
2023/10/19 06:25:37;;;;;;;3.30;2.33;;;;;;;7.86;100.00;99517.59;7389257;19;19926;-68
2023/10/19 06:28:07;;;;;;;2.83;2.30;;;;;;;7.83;100.00;99514.47;7386290;19;19922;-68
2023/10/19 06:30:35;;;;;;;2.80;2.35;;;;;;;7.82;100.00;99520.84;7394603;19;19918;-68
2023/10/19 06:33:04;;;;;;;3.45;2.38;;;;;;;7.83;100.00;99518.00;7393363;19;19926;-70
2023/10/19 06:35:37;;;;;;;3.20;2.53;;;;;;;7.85;100.00;99520.50;7393703;19;20296;-68
2023/10/19 06:38:09;;;;;;;2.25;2.05;;;;;;;7.85;100.00;99521.31;7391822;19;19962;-68
2023/10/19 06:40:40;;;;;;;2.88;2.03;;;;;;;7.85;100.00;99524.00;7391190;19;19929;-68
2023/10/19 06:43:09;;;;;;;2.08;1.88;;;;;;;7.85;100.00;99529.38;7393332;19;19918;-68
2023/10/19 06:45:37;;;;;;;3.13;2.10;;;;;;;7.84;100.00;99516.97;7394865;19;22548;-69
2023/10/19 06:48:07;;;;;;;2.47;1.90;;;;;;;7.87;100.00;99531.84;7394705;19;19926;-68
2023/10/19 06:50:37;;;;;;;2.42;1.85;;;;;;;7.87;100.00;99527.31;7391701;19;19930;-68
2023/10/19 06:53:07;;;;;;;2.40;2.15;;;;;;;7.85;100.00;99540.09;7393007;19;20399;-69
2023/10/19 06:55:35;;;;;;;2.10;1.90;;;;;;;7.85;100.00;99544.63;7394357;19;19979;-68
2023/10/19 06:58:09;;;;;;;2.22;1.80;;;;;;;7.85;100.00;99539.25;7391802;19;19923;-68
2023/10/19 07:00:42;;;;;;;2.25;1.98;;;;;;;7.87;100.00;99537.19;7391045;19;19918;-68
2023/10/19 07:03:11;;;;;;;1.95;1.70;;;;;;;7.88;100.00;99545.06;7393616;19;19951;-68
2023/10/19 07:05:39;;;;;;;2.13;1.92;;;;;;;7.89;100.00;99544.03;7394332;19;19927;-69
2023/10/19 07:08:09;;;;;;;1.95;1.80;;;;;;;7.90;100.00;99542.16;7392146;19;19926;-68
2023/10/19 07:10:38;;;;;;;2.08;1.90;;;;;;;7.91;100.00;99546.50;7393275;19;19915;-68
2023/10/19 07:13:09;;;;;;;2.30;2.10;;;;;;;7.91;100.00;99549.19;7395588;19;19950;-68
2023/10/19 07:15:41;;;;;;;2.30;1.60;;;;;;;7.90;100.00;99553.72;7386245;19;19922;-68
2023/10/19 07:18:10;;;;;;;2.63;2.00;;;;;;;7.89;100.00;99549.41;7387808;19;19932;-68
2023/10/19 07:20:38;;;;;;;2.30;1.90;;;;;;;7.90;100.00;99550.22;7390523;19;20026;-68
2023/10/19 07:23:09;;;;;;;2.33;1.95;;;;;;;7.89;100.00;99552.09;7382483;19;19926;-68
2023/10/19 07:25:42;;;;;;;4.78;1.85;;;;;;;7.89;100.00;99545.91;7393906;19;19919;-68
2023/10/19 07:28:15;;;;;;;2.30;2.08;;;;;;;7.90;100.00;99540.31;7382059;19;20571;-69
2023/10/19 07:30:44;;;;;;;1.98;1.83;;;;;;;7.91;100.00;99551.88;7390689;19;20349;-68
2023/10/19 07:33:17;;;;;;;2.00;1.80;;;;;;;7.92;100.00;99540.97;7391721;19;19965;-68
2023/10/19 07:35:47;;;;;;;2.80;1.60;;;;;;;7.94;100.00;99543.47;7393789;19;19932;-69
2023/10/19 07:38:16;;;;;;;2.10;1.90;;;;;;;7.94;100.00;99554.19;7391688;19;21505;-69
2023/10/19 07:40:46;;;;;;;2.72;2.13;;;;;;;7.94;100.00;99555.00;7385754;19;19926;-69
2023/10/19 07:43:17;;;;;;;2.20;1.90;;;;;;;7.95;100.00;99551.31;7389503;19;20274;-69
2023/10/19 07:45:46;;;;;;;2.05;1.85;;;;;;;7.94;100.00;99546.94;7392207;19;20617;-69
2023/10/19 07:48:16;;;;;;;2.15;1.90;;;;;;;7.96;100.00;99554.81;7387999;19;20776;-69
2023/10/19 07:50:46;;;;;;;2.03;1.85;;;;;;;7.97;100.00;99565.38;7394211;19;19967;-69
2023/10/19 07:53:14;;;;;;;1.90;1.70;;;;;;;7.97;100.00;99561.84;7391031;19;19926;-69
2023/10/19 07:55:43;;;;;;;2.00;1.88;;;;;;;7.98;100.00;99560.84;7393369;19;19960;-69
2023/10/19 07:58:12;;;;;;;1.85;1.70;;;;;;;8.00;100.00;99561.44;7388843;19;19944;-69
2023/10/19 08:00:46;;;;;;;1.90;1.50;;;;;;;8.00;100.00;99554.25;7390790;19;19927;-69
2023/10/19 08:03:16;;;;;;;2.03;1.75;;;;;;;8.00;100.00;99562.28;7394040;19;19933;-69
2023/10/19 08:05:44;;;;;;;1.70;1.60;;;;;;;8.01;100.00;99555.91;7389915;19;19922;-68
2023/10/19 08:08:13;;;;;;;1.60;1.50;;;;;;;8.00;100.00;99550.72;7390141;19;19954;-68
2023/10/19 08:10:42;;;;;;;3.00;1.98;;;;;;;8.01;100.00;99547.03;7387722;19;19922;-68
2023/10/19 08:13:12;;;;;;;1.95;1.85;;;;;;;8.03;100.00;99559.22;7392120;19;19944;-69
2023/10/19 08:15:43;;;;;;;2.05;1.77;;;;;;;8.05;100.00;99557.19;7390341;19;20440;-69
2023/10/19 08:18:12;;;;;;;1.60;1.50;;;;;;;8.04;100.00;99563.56;7391824;19;19953;-69
2023/10/19 08:20:41;;;;;;;1.40;1.30;;;;;;;8.03;100.00;99558.38;7389667;19;19978;-69
2023/10/19 08:23:10;;;;;;;2.58;1.90;;;;;;;8.05;100.00;99572.44;7392509;19;19927;-69
2023/10/19 08:25:39;;;;;;;1.80;1.70;;;;;;;8.02;100.00;99562.94;7392165;19;19930;-68
2023/10/19 08:28:08;;;;;;;2.83;1.60;;;;;;;8.03;100.00;99574.47;7389628;19;20246;-69
2023/10/19 08:30:37;;;;;;;1.88;1.60;;;;;;;8.02;100.00;99562.94;7389374;19;19922;-69
2023/10/19 08:33:08;;;;;;;1.58;1.48;;;;;;;8.04;100.00;99570.78;7392075;19;20339;-69
2023/10/19 08:35:37;;;;;;;1.88;1.60;;;;;;;8.05;100.00;99573.28;7389474;19;19948;-69
2023/10/19 08:38:11;;;;;;;1.88;1.38;;;;;;;8.06;100.00;99569.56;7396814;19;19930;-69
2023/10/19 08:40:40;;;;;;;2.42;1.52;;;;;;;8.09;100.00;99574.56;7396398;19;20269;-69
2023/10/19 08:43:13;;;;;;;1.85;1.67;;;;;;;8.13;100.00;99574.97;7398065;19;19922;-69
2023/10/19 08:45:42;;;;;;;1.60;1.50;;;;;;;8.12;100.00;99574.16;7397037;19;19932;-69
2023/10/19 08:48:13;;;;;;;1.77;1.60;;;;;;;8.11;100.00;99567.13;7398250;19;19919;-69
2023/10/19 08:50:43;;;;;;;1.50;1.40;;;;;;;8.11;100.00;99583.22;7394537;19;19927;-70
2023/10/19 08:53:14;;;;;;;1.73;1.63;;;;;;;8.14;100.00;99574.81;7394853;19;19926;-69
2023/10/19 08:55:43;;;;;;;2.05;1.58;;;;;;;8.14;100.00;99571.28;7394775;19;20321;-69
2023/10/19 08:58:12;;;;;;;1.45;1.30;;;;;;;8.15;100.00;99578.31;7391603;19;19929;-69
2023/10/19 09:00:51;;;;;;;1.60;1.50;;;;;;;8.15;100.00;99576.44;7395119;19;19951;-69
2023/10/19 09:03:24;;;;;;;1.98;1.73;;;;;;;8.17;100.00;99581.63;7392296;19;20498;-69
2023/10/19 09:05:53;;;;;;;1.70;1.42;;;;;;;8.18;100.00;99578.75;7397163;19;19915;-69
2023/10/19 09:08:22;;;;;;;3.20;1.40;;;;;;;8.20;100.00;99576.69;7397173;19;20421;-69
2023/10/19 09:10:52;;;;;;;1.80;1.55;;;;;;;8.21;100.00;99580.22;7396468;19;19915;-70
2023/10/19 09:13:22;;;;;;;1.73;1.25;;;;;;;8.21;100.00;99578.38;7393558;19;20273;-68
2023/10/19 09:15:53;;;;;;;1.40;1.30;;;;;;;8.20;100.00;99583.91;7395999;19;19953;-67
2023/10/19 09:18:27;;;;;;;1.48;1.38;;;;;;;8.20;100.00;99579.38;7390866;19;19944;-68
2023/10/19 09:21:02;;;;;;;2.13;1.75;;;;;;;8.24;100.00;99576.34;7396062;19;20403;-70
2023/10/19 09:23:30;;;;;;;1.67;1.40;;;;;;;8.25;100.00;99576.13;7390437;19;19982;-70
2023/10/19 09:26:02;;;;;;;1.80;1.52;;;;;;;8.26;100.00;99580.47;7396281;19;20477;-68
2023/10/19 09:28:33;;;;;;;;;;;;;;;8.21;100.00;99580.22;7396633;19;19944;-68
2023/10/19 09:31:03;;;;;;;3.58;1.30;;;;;;;8.30;100.00;99581.78;7395115;19;19922;-68
2023/10/19 09:33:35;;;;;;;1.95;1.13;;;;;;;8.35;100.00;99578.50;7392473;19;20709;-68
2023/10/19 09:36:12;;;;;;;2.13;1.92;;;;;;;8.35;100.00;99573.97;7395171;19;19926;-68
2023/10/19 09:38:42;;;;;;;1.83;1.48;;;;;;;8.37;100.00;99579.16;7394190;19;19910;-68
2023/10/19 09:41:15;;;;;;;2.05;1.50;;;;;;;8.37;100.00;99571.91;7397124;19;19937;-68
2023/10/19 09:43:46;;;;;;;1.48;1.17;;;;;;;8.38;100.00;99572.75;7394934;19;19919;-68
2023/10/19 09:46:23;;;;;;;1.23;1.13;;;;;;;8.39;100.00;99579.78;7395681;19;19926;-68
2023/10/19 09:48:55;;;;;;;1.65;1.30;;;;;;;8.40;100.00;99571.53;7396812;19;20364;-69
2023/10/19 09:51:25;;;;;;;1.73;1.42;;;;;;;8.42;100.00;99569.47;7396308;19;20032;-68
2023/10/19 09:54:03;;;;;;;1.58;1.38;;;;;;;8.45;100.00;99565.59;7392365;19;19922;-68
2023/10/19 09:56:34;;;;;;;;;;;;;;;8.41;100.00;99567.00;7395290;19;20242;-68
2023/10/19 09:59:08;;;;;;;14.18;1.42;;;;;;;8.48;100.00;99559.81;7391464;19;20278;-68
2023/10/19 10:02:07;;;;;;;1.73;1.50;;;;;;;8.48;100.00;99555.28;7395877;19;20360;-69
2023/10/19 10:04:38;;;;;;;1.55;1.45;;;;;;;8.55;100.00;99553.47;7396658;19;20036;-68
2023/10/19 10:07:09;;;;;;;1.58;1.40;;;;;;;8.59;100.00;99546.69;7394071;19;19930;-68
2023/10/19 10:09:43;;;;;;;1.50;1.40;;;;;;;8.64;100.00;99552.28;7388091;19;19937;-69
2023/10/19 10:12:19;;;;;;;1.92;1.50;;;;;;;8.67;100.00;99550.25;7383616;19;19943;-69
2023/10/19 10:15:02;;;;;;;2.10;1.75;;;;;;;8.68;100.00;99552.72;7372936;19;20372;-70
2023/10/19 10:17:35;;;;;;;2.35;1.70;;;;;;;8.72;100.00;99556.66;7372474;19;19990;-69
2023/10/19 10:20:35;;;;;;;2.25;1.92;;;;;;;8.69;100.00;99565.13;7382210;19;19934;-68
2023/10/19 10:23:21;;;;;;;2.03;1.90;;;;;;;8.71;100.00;99562.25;7393286;19;20511;-69
2023/10/19 10:25:50;;;;;;;2.05;1.80;;;;;;;8.74;100.00;99564.53;7395214;19;19931;-70
2023/10/19 10:28:20;;;;;;;2.15;1.73;;;;;;;8.76;100.00;99562.50;7381343;19;19923;-70
2023/10/19 10:31:13;;;;;;;2.17;1.85;;;;;;;8.74;100.00;99560.00;7371132;19;19929;-69
2023/10/19 10:33:45;;;;;;;4.50;2.17;;;;;;;8.77;100.00;99567.66;7393016;19;19914;-69
2023/10/19 10:36:16;;;;;;;4.22;1.98;;;;;;;8.78;100.00;99563.94;7390628;19;19922;-69
2023/10/19 10:38:46;;;;;;;2.65;2.03;;;;;;;8.79;100.00;99549.50;7393973;19;20345;-69
2023/10/19 10:41:21;;;;;;;2.15;1.95;;;;;;;8.81;100.00;99547.44;7376882;19;19930;-69
2023/10/19 10:43:55;;;;;;;2.60;2.40;;;;;;;8.82;100.00;99549.09;7386097;19;19963;-68
2023/10/19 10:46:25;;;;;;;2.30;2.10;;;;;;;8.82;100.00;99543.72;7393239;19;20020;-68
2023/10/19 10:48:54;;;;;;;2.88;2.40;;;;;;;8.82;100.00;99550.97;7394738;19;19930;-68
2023/10/19 10:51:27;;;;;;;3.92;2.17;;;;;;;8.83;100.00;99541.88;7394282;19;19933;-68
2023/10/19 10:53:57;;;;;;;2.75;2.47;;;;;;;8.85;100.00;99546.00;7394013;19;20353;-67
2023/10/19 10:56:26;;;;;;;3.67;2.50;;;;;;;8.86;100.00;99547.69;7383856;19;19919;-68
2023/10/19 10:58:55;;;;;;;2.92;2.63;;;;;;;8.88;100.00;99537.59;7388642;19;19932;-68
2023/10/19 11:01:33;;;;;;;3.10;2.80;;;;;;;8.89;100.00;99535.69;7385339;19;19918;-68
2023/10/19 11:04:08;;;;;;;4.63;3.08;;;;;;;8.91;100.00;99541.72;7376087;19;22175;-68
2023/10/19 11:06:52;;;;;;;3.80;3.50;;;;;;;8.92;100.00;99532.63;7380706;19;19967;-68
2023/10/19 11:09:22;;;;;;;4.18;3.78;;;;;;;8.94;100.00;99535.94;7382533;19;19963;-68
2023/10/19 11:11:52;;;;;;;4.72;4.32;;;;;;;8.96;100.00;99542.78;7384876;19;19947;-68
2023/10/19 11:14:23;;;;;;;5.00;4.53;;;;;;;8.95;100.00;99540.28;7368313;19;19926;-68
2023/10/19 11:16:52;;;;;;;5.05;4.65;;;;;;;8.91;100.00;99555.13;7372696;19;19922;-68
2023/10/19 11:19:21;;;;;;;4.75;4.25;;;;;;;8.89;100.00;99554.50;7389692;19;20277;-68
2023/10/19 11:21:59;;;;;;;6.95;5.00;;;;;;;8.88;100.00;99558.22;7389367;19;19935;-68
2023/10/19 11:24:33;;;;;;;6.05;4.65;;;;;;;8.89;100.00;99552.63;7372267;19;19922;-68
2023/10/19 11:27:07;;;;;;;4.78;4.35;;;;;;;8.91;100.00;99561.34;7371004;19;19924;-69
2023/10/19 11:29:36;;;;;;;4.78;4.32;;;;;;;8.91;100.00;99553.28;7382302;19;19947;-69
2023/10/19 11:32:05;;;;;;;5.00;4.50;;;;;;;8.94;100.00;99557.41;7387868;19;19933;-69
2023/10/19 11:34:34;;;;;;;4.35;3.95;;;;;;;8.93;100.00;99553.91;7392890;19;19919;-68
2023/10/19 11:37:06;;;;;;;4.32;3.08;;;;;;;8.93;100.00;99553.09;7393381;19;20616;-69
2023/10/19 11:39:35;;;;;;;3.83;3.40;;;;;;;8.90;100.00;99554.31;7390937;19;19926;-68
2023/10/19 11:42:04;;;;;;;3.45;3.15;;;;;;;8.90;100.00;99557.00;7394641;19;19918;-69
2023/10/19 11:44:33;;;;;;;3.90;3.10;;;;;;;8.88;100.00;99560.91;7392654;19;19918;-69
2023/10/19 11:47:01;;;;;;;3.05;2.72;;;;;;;8.85;100.00;99567.50;7391446;19;19915;-68
2023/10/19 11:49:30;;;;;;;3.30;2.92;;;;;;;8.85;100.00;99574.72;7392464;19;19933;-69
2023/10/19 11:51:59;;;;;;;4.15;2.90;;;;;;;8.85;100.00;99561.28;7388634;19;19922;-68
2023/10/19 11:54:31;;;;;;;4.05;2.72;;;;;;;8.85;100.00;99563.97;7388799;19;19931;-69